Time;durP1;ratioP1;P1;durP2;ratioP2;P2;SDS_P1;SDS_P2;PMS_P1;PMS_P2;Temp;Humidity;BMP_temperature;BMP_pressure;BME280_temperature;BME280_humidity;BME280_pressure;Samples;Min_cycle;Max_cycle;Signal;HPM_P1;HPM_P2
2021/09/29 00:01:56;;;;;;;3.85;2.58;;;12.10;99.90;;;;;;5068164;28;20037;-77
2021/09/29 00:04:23;;;;;;;7.68;2.92;;;12.10;99.90;;;;;;5053356;28;20045;-77
2021/09/29 00:06:49;;;;;;;4.70;3.45;;;12.10;99.90;;;;;;5056228;28;20045;-77
2021/09/29 00:09:15;;;;;;;2.67;2.47;;;12.10;99.90;;;;;;5055114;28;20029;-78
2021/09/29 00:11:42;;;;;;;3.97;3.58;;;12.20;99.90;;;;;;5064011;28;20047;-76
2021/09/29 00:14:08;;;;;;;5.90;3.05;;;12.20;99.90;;;;;;5055355;28;20032;-77
2021/09/29 00:16:34;;;;;;;3.30;2.92;;;12.20;99.90;;;;;;5056436;28;20040;-77
2021/09/29 00:19:00;;;;;;;2.95;2.75;;;12.20;99.90;;;;;;5053868;28;20041;-78
2021/09/29 00:21:26;;;;;;;4.60;4.10;;;12.20;99.90;;;;;;5055735;28;20036;-78
2021/09/29 00:23:53;;;;;;;4.85;4.07;;;12.20;99.90;;;;;;5055543;28;20041;-78
2021/09/29 00:26:19;;;;;;;6.35;3.70;;;12.30;99.90;;;;;;5062097;28;20036;-78
2021/09/29 00:28:45;;;;;;;4.72;4.32;;;12.20;99.90;;;;;;5063905;28;20029;-78
2021/09/29 00:34:06;;;;;;;6.13;4.63;;;12.10;99.90;;;;;;5055223;28;20044;-77
2021/09/29 00:36:34;;;;;;;5.53;4.82;;;12.10;99.90;;;;;;5055179;28;20478;-78
2021/09/29 00:39:01;;;;;;;4.30;3.90;;;12.10;99.90;;;;;;5055424;28;20032;-79
2021/09/29 00:41:27;;;;;;;4.35;3.70;;;12.20;99.90;;;;;;5055541;28;20037;-78
2021/09/29 00:43:53;;;;;;;3.97;3.58;;;12.20;99.90;;;;;;5054672;28;20037;-79
2021/09/29 00:46:19;;;;;;;3.72;3.20;;;12.10;99.90;;;;;;5055611;28;20399;-77
2021/09/29 00:48:45;;;;;;;5.53;3.58;;;12.20;99.90;;;;;;5061509;28;20025;-77
2021/09/29 00:51:12;;;;;;;4.55;4.15;;;12.10;99.90;;;;;;5056740;28;20044;-77
2021/09/29 00:53:39;;;;;;;4.32;3.92;;;12.00;99.90;;;;;;5051183;28;20395;-77
2021/09/29 00:56:06;;;;;;;8.30;4.63;;;12.00;99.90;;;;;;5054431;28;20036;-77
2021/09/29 00:58:32;;;;;;;6.20;3.97;;;12.10;99.90;;;;;;5056635;28;20372;-77
2021/09/29 01:00:58;;;;;;;3.92;3.42;;;12.10;99.90;;;;;;5059112;28;20028;-78
2021/09/29 01:03:24;;;;;;;7.05;4.57;;;12.20;99.90;;;;;;5055303;28;20144;-77
2021/09/29 01:05:53;;;;;;;4.70;4.00;;;12.30;99.90;;;;;;5055434;28;20487;-77
2021/09/29 01:08:28;;;;;;;4.35;3.95;;;12.30;99.90;;;;;;5054734;28;20481;-78
2021/09/29 01:11:07;;;;;;;4.28;3.50;;;12.30;99.90;;;;;;5054466;28;20044;-77
2021/09/29 01:14:01;;;;;;;5.85;4.30;;;12.20;99.90;;;;;;5056124;28;20025;-77
2021/09/29 01:16:34;;;;;;;7.97;3.78;;;12.30;99.90;;;;;;5054114;28;20513;-77
2021/09/29 01:19:02;;;;;;;5.80;4.18;;;12.40;99.90;;;;;;5039753;28;20033;-77
2021/09/29 01:21:40;;;;;;;6.70;4.72;;;12.50;99.90;;;;;;5053985;28;20052;-78
2021/09/29 01:24:26;;;;;;;11.13;4.57;;;12.50;99.90;;;;;;5053739;28;20037;-78
2021/09/29 01:26:53;;;;;;;4.50;4.10;;;12.50;99.90;;;;;;5054401;28;20406;-78
2021/09/29 01:29:22;;;;;;;4.15;3.67;;;12.50;99.90;;;;;;5042685;28;20367;-78
2021/09/29 01:31:51;;;;;;;4.20;3.88;;;12.40;99.90;;;;;;5054032;28;20319;-78
2021/09/29 01:34:19;;;;;;;4.82;3.60;;;12.50;99.90;;;;;;5053436;28;20044;-77
2021/09/29 01:36:46;;;;;;;4.35;3.80;;;12.50;99.90;;;;;;5053975;28;20029;-78
2021/09/29 01:39:15;;;;;;;4.68;3.65;;;12.40;99.90;;;;;;5054347;28;20415;-78
2021/09/29 01:41:42;;;;;;;5.10;4.60;;;12.40;99.90;;;;;;5036220;28;20374;-78
2021/09/29 01:44:09;;;;;;;7.10;4.38;;;12.40;99.90;;;;;;5053689;28;20047;-75
2021/09/29 01:46:35;;;;;;;4.57;3.83;;;12.40;99.90;;;;;;5036692;28;20037;-77
2021/09/29 01:49:10;;;;;;;6.20;3.95;;;12.40;99.90;;;;;;5053864;28;20462;-76
2021/09/29 01:51:38;;;;;;;3.72;3.42;;;12.30;99.90;;;;;;5053565;28;20040;-76
2021/09/29 01:54:07;;;;;;;4.10;3.70;;;12.30;99.90;;;;;;5053709;28;20032;-76
2021/09/29 01:56:34;;;;;;;7.75;4.40;;;12.30;99.90;;;;;;5068053;28;20037;-77
2021/09/29 01:59:04;;;;;;;11.07;4.60;;;12.30;99.90;;;;;;5052896;28;20028;-78
2021/09/29 02:01:41;;;;;;;6.80;4.55;;;12.40;99.90;;;;;;5054122;28;20037;-77
2021/09/29 02:04:09;;;;;;;8.57;4.75;;;12.40;99.90;;;;;;5053590;28;20033;-78
2021/09/29 02:06:49;;;;;;;6.07;4.45;;;12.40;99.90;;;;;;5053387;28;20415;-77
2021/09/29 02:09:16;;;;;;;9.68;5.20;;;12.50;99.90;;;;;;5053586;28;20056;-77
2021/09/29 02:11:43;;;;;;;7.03;4.45;;;12.60;99.90;;;;;;5053286;28;20028;-77
2021/09/29 02:14:09;;;;;;;6.15;5.55;;;12.60;99.90;;;;;;5062621;28;20041;-77
2021/09/29 02:16:36;;;;;;;5.45;4.95;;;12.60;99.90;;;;;;5053023;28;20497;-77
2021/09/29 02:19:03;;;;;;;5.15;4.65;;;12.70;99.90;;;;;;5052995;28;20033;-77
2021/09/29 02:21:29;;;;;;;4.18;3.83;;;12.70;99.90;;;;;;5053556;28;20025;-77
2021/09/29 02:23:55;;;;;;;9.65;5.65;;;12.80;99.90;;;;;;5053005;28;20025;-77
2021/09/29 02:26:22;;;;;;;7.60;4.63;;;12.80;99.90;;;;;;5052606;28;20398;-78
2021/09/29 02:28:49;;;;;;;5.05;4.18;;;12.80;99.90;;;;;;5053514;28;20028;-78
2021/09/29 02:31:16;;;;;;;10.27;4.82;;;12.90;99.90;;;;;;5035166;28;20041;-78
2021/09/29 02:33:43;;;;;;;5.15;4.65;;;12.90;99.90;;;;;;5051215;28;20044;-79
2021/09/29 02:36:10;;;;;;;6.78;5.40;;;12.90;99.90;;;;;;5035037;28;20052;-77
2021/09/29 02:38:37;;;;;;;4.95;4.55;;;12.90;99.90;;;;;;5052927;28;20028;-77
2021/09/29 02:41:03;;;;;;;4.68;4.28;;;13.00;99.90;;;;;;5052626;28;20052;-78
2021/09/29 02:43:30;;;;;;;5.63;4.38;;;13.10;99.90;;;;;;5053011;28;20021;-78
2021/09/29 02:45:56;;;;;;;7.63;4.70;;;13.20;99.90;;;;;;5052866;28;20052;-77
2021/09/29 02:48:22;;;;;;;5.68;4.05;;;13.20;99.90;;;;;;5034979;28;20395;-77
2021/09/29 02:50:48;;;;;;;5.00;3.72;;;13.20;99.90;;;;;;5053343;28;20359;-78
2021/09/29 02:53:15;;;;;;;4.65;3.97;;;13.20;99.90;;;;;;5052529;28;20348;-78
2021/09/29 02:55:41;;;;;;;6.03;3.88;;;13.30;99.90;;;;;;5052954;28;20029;-76
2021/09/29 02:58:09;;;;;;;3.88;3.58;;;13.30;99.90;;;;;;5052128;28;20036;-79
2021/09/29 03:00:35;;;;;;;5.93;4.65;;;13.30;99.90;;;;;;5052442;28;20040;-77
2021/09/29 03:03:02;;;;;;;5.88;4.32;;;13.30;99.90;;;;;;5050463;28;20048;-77
2021/09/29 03:05:28;;;;;;;5.28;4.78;;;13.20;99.90;;;;;;5052906;28;20041;-77
2021/09/29 03:07:54;;;;;;;4.50;4.10;;;13.20;99.90;;;;;;5052339;28;20029;-78
2021/09/29 03:10:20;;;;;;;6.55;5.32;;;13.20;99.90;;;;;;5051481;28;20029;-78
2021/09/29 03:12:47;;;;;;;5.65;5.15;;;13.10;99.90;;;;;;5052137;28;20040;-78
2021/09/29 03:15:14;;;;;;;4.95;4.50;;;13.10;99.90;;;;;;5051811;28;20044;-78
2021/09/29 03:17:41;;;;;;;5.60;5.03;;;13.10;99.90;;;;;;5052306;28;20152;-78
2021/09/29 03:20:08;;;;;;;9.38;4.07;;;13.00;99.90;;;;;;5034402;28;20096;-78
2021/09/29 03:22:34;;;;;;;5.75;4.82;;;12.90;99.90;;;;;;5048801;28;20028;-76
2021/09/29 03:25:01;;;;;;;5.32;4.82;;;12.80;99.90;;;;;;5051755;28;20041;-76
2021/09/29 03:27:28;;;;;;;6.90;4.63;;;12.70;99.90;;;;;;5048744;28;20462;-77
2021/09/29 03:29:54;;;;;;;5.13;4.72;;;12.60;99.90;;;;;;5068632;28;20091;-77
2021/09/29 03:32:20;;;;;;;6.25;5.32;;;12.50;99.90;;;;;;5057420;28;20043;-78
2021/09/29 03:34:47;;;;;;;5.60;5.10;;;12.50;99.90;;;;;;5075456;28;20036;-76
2021/09/29 03:37:13;;;;;;;6.68;5.88;;;12.30;99.90;;;;;;5064302;28;20041;-78
2021/09/29 03:39:39;;;;;;;7.78;5.60;;;12.20;99.90;;;;;;5057382;28;20390;-77
2021/09/29 03:42:06;;;;;;;7.07;6.38;;;12.10;99.90;;;;;;5022885;28;20064;-77
2021/09/29 03:44:32;;;;;;;6.32;5.60;;;12.00;99.90;;;;;;5057450;28;20049;-79
2021/09/29 03:46:59;;;;;;;6.90;6.30;;;12.00;99.90;;;;;;5057352;28;20379;-77
2021/09/29 03:49:25;;;;;;;7.22;6.53;;;12.00;99.90;;;;;;5056150;28;20033;-78
2021/09/29 03:51:51;;;;;;;6.45;5.90;;;11.90;99.90;;;;;;5060580;28;20058;-77
2021/09/29 03:54:17;;;;;;;7.70;7.00;;;11.90;99.90;;;;;;5074509;28;20044;-77
2021/09/29 03:56:43;;;;;;;7.47;6.78;;;11.80;99.90;;;;;;5055375;28;20033;-76
2021/09/29 03:59:10;;;;;;;13.57;8.00;;;11.80;99.90;;;;;;5055116;28;20036;-76
2021/09/29 04:01:36;;;;;;;9.07;8.30;;;11.70;99.90;;;;;;5054964;28;20426;-77
2021/09/29 04:04:02;;;;;;;7.60;7.00;;;11.60;99.90;;;;;;5055374;28;20043;-78
2021/09/29 04:06:28;;;;;;;11.38;7.88;;;11.60;99.90;;;;;;5054847;28;20397;-76
2021/09/29 04:08:55;;;;;;;9.27;8.45;;;11.70;99.90;;;;;;5055108;28;20396;-76
2021/09/29 04:11:21;;;;;;;9.30;8.45;;;11.60;99.90;;;;;;5055283;28;20097;-76
2021/09/29 04:13:48;;;;;;;9.00;8.10;;;11.60;99.90;;;;;;5059251;28;20064;-76
2021/09/29 04:16:14;;;;;;;7.93;7.22;;;11.60;99.90;;;;;;5054855;28;20040;-76
2021/09/29 04:18:40;;;;;;;10.30;6.65;;;11.60;99.90;;;;;;5054830;28;20422;-76
2021/09/29 04:21:06;;;;;;;11.57;7.45;;;11.60;99.90;;;;;;5055247;28;20067;-77
2021/09/29 04:23:35;;;;;;;8.13;7.43;;;11.60;99.90;;;;;;5063588;28;20032;-76
2021/09/29 04:26:03;;;;;;;8.40;6.88;;;11.50;99.90;;;;;;5074116;28;20040;-78
2021/09/29 04:28:29;;;;;;;9.07;7.50;;;11.40;99.90;;;;;;5054632;28;20029;-76
2021/09/29 04:30:56;;;;;;;8.13;7.47;;;11.40;99.90;;;;;;5054931;28;20029;-77
2021/09/29 04:33:22;;;;;;;12.32;8.25;;;11.40;99.90;;;;;;5055391;28;20033;-75
2021/09/29 04:35:49;;;;;;;7.22;6.53;;;11.30;99.90;;;;;;5054953;28;20045;-75
2021/09/29 04:38:15;;;;;;;8.60;7.88;;;11.30;99.90;;;;;;5053132;28;20694;-75
2021/09/29 04:40:41;;;;;;;9.00;8.15;;;11.30;99.90;;;;;;5036953;28;20120;-75
2021/09/29 04:43:08;;;;;;;8.35;6.93;;;11.30;99.90;;;;;;5054268;28;20386;-76
2021/09/29 04:45:34;;;;;;;9.20;8.25;;;11.30;99.90;;;;;;5054565;28;20056;-75
2021/09/29 04:48:05;;;;;;;7.40;6.85;;;11.30;99.90;;;;;;5054110;28;20466;-78
2021/09/29 04:50:31;;;;;;;12.50;6.85;;;11.30;99.90;;;;;;5072791;28;20047;-76
2021/09/29 04:52:58;;;;;;;11.35;7.85;;;11.20;99.90;;;;;;5054423;28;20033;-75
2021/09/29 04:55:24;;;;;;;7.32;6.30;;;11.20;99.90;;;;;;5069236;28;20037;-76
2021/09/29 04:57:51;;;;;;;8.70;7.90;;;11.30;99.90;;;;;;5072812;28;20032;-76
2021/09/29 05:00:18;;;;;;;6.90;6.25;;;11.40;99.90;;;;;;5057941;28;20113;-77
2021/09/29 05:02:47;;;;;;;8.82;7.95;;;11.50;99.90;;;;;;5053917;28;20040;-77
2021/09/29 05:05:13;;;;;;;8.23;7.53;;;11.40;99.90;;;;;;5054069;28;20378;-77
2021/09/29 05:07:41;;;;;;;13.90;8.43;;;11.30;99.90;;;;;;5054322;28;20037;-77
2021/09/29 05:10:14;;;;;;;11.20;8.25;;;11.30;99.90;;;;;;5064525;28;20139;-77
2021/09/29 05:12:41;;;;;;;9.38;7.43;;;11.30;99.90;;;;;;5063567;28;20040;-77
2021/09/29 05:15:07;;;;;;;8.23;7.53;;;11.40;99.90;;;;;;5053258;28;20068;-78
2021/09/29 05:17:33;;;;;;;8.27;7.53;;;11.40;99.90;;;;;;5055573;28;20371;-77
2021/09/29 05:20:00;;;;;;;7.38;6.78;;;11.40;99.90;;;;;;5054578;28;20386;-77
2021/09/29 05:22:26;;;;;;;7.65;6.95;;;11.40;99.90;;;;;;5053444;28;20025;-74
2021/09/29 05:24:52;;;;;;;7.72;7.10;;;11.40;99.90;;;;;;5054501;28;20036;-76
2021/09/29 05:27:18;;;;;;;7.75;6.82;;;11.50;99.90;;;;;;5053860;28;20033;-78
2021/09/29 05:29:48;;;;;;;7.35;6.65;;;11.50;99.90;;;;;;5053899;28;20033;-76
2021/09/29 05:32:14;;;;;;;7.38;6.78;;;11.60;99.90;;;;;;5053550;28;20052;-76
2021/09/29 05:34:40;;;;;;;8.15;6.40;;;11.70;99.90;;;;;;5054201;28;20049;-76
2021/09/29 05:37:07;;;;;;;6.55;5.95;;;11.80;99.90;;;;;;5064939;28;20048;-77
2021/09/29 05:39:33;;;;;;;7.78;6.97;;;11.90;99.90;;;;;;5053324;28;20478;-76
2021/09/29 05:42:00;;;;;;;9.85;6.38;;;11.90;99.90;;;;;;5054531;28;20036;-75
2021/09/29 05:44:28;;;;;;;6.32;5.80;;;11.90;99.90;;;;;;5053083;28;20056;-76
2021/09/29 05:46:54;;;;;;;6.20;5.60;;;12.00;99.90;;;;;;5053083;28;20049;-77
2021/09/29 05:49:20;;;;;;;6.45;4.78;;;12.00;99.90;;;;;;5034008;28;20055;-76
2021/09/29 05:51:47;;;;;;;6.70;5.72;;;12.10;99.90;;;;;;5053216;28;20037;-77
2021/09/29 05:54:14;;;;;;;6.53;5.38;;;12.10;99.90;;;;;;5052605;28;20040;-77
2021/09/29 05:56:41;;;;;;;7.47;6.07;;;12.20;99.90;;;;;;5052648;28;20472;-76
2021/09/29 05:59:08;;;;;;;9.80;5.95;;;12.20;99.90;;;;;;5052846;28;20040;-78
2021/09/29 06:01:34;;;;;;;6.63;5.85;;;12.20;99.90;;;;;;5053314;28;20064;-76
2021/09/29 06:04:01;;;;;;;7.57;6.00;;;12.20;99.90;;;;;;5052905;28;20528;-76
2021/09/29 06:06:27;;;;;;;5.82;5.32;;;12.20;99.90;;;;;;5052674;28;20040;-76
2021/09/29 06:08:53;;;;;;;6.13;5.05;;;12.30;99.90;;;;;;5053658;28;20025;-76
2021/09/29 06:11:19;;;;;;;5.25;4.82;;;12.20;99.90;;;;;;5074557;28;20032;-80
2021/09/29 06:13:46;;;;;;;6.85;6.15;;;12.30;99.90;;;;;;5063183;28;20037;-79
2021/09/29 06:16:12;;;;;;;5.25;4.10;;;12.20;99.90;;;;;;5060247;28;20045;-79
2021/09/29 06:18:39;;;;;;;7.32;5.63;;;12.30;99.90;;;;;;5060689;28;20470;-79
2021/09/29 06:21:07;;;;;;;5.20;4.70;;;12.20;99.90;;;;;;5053016;28;20029;-79
2021/09/29 06:23:35;;;;;;;5.22;4.72;;;12.20;99.90;;;;;;5052562;28;20032;-78
2021/09/29 06:26:03;;;;;;;6.70;4.40;;;12.50;99.90;;;;;;5052656;28;20037;-80
2021/09/29 06:28:34;;;;;;;5.05;3.83;;;13.60;99.90;;;;;;5052622;28;20143;-79
2021/09/29 06:31:01;;;;;;;6.80;4.70;;;14.30;99.90;;;;;;5052150;28;20055;-80
2021/09/29 06:33:27;;;;;;;4.60;3.17;;;15.60;98.40;;;;;;5051977;28;20359;-80
2021/09/29 06:35:53;;;;;;;4.82;2.85;;;16.70;91.70;;;;;;5034730;28;20029;-80
2021/09/29 06:38:19;;;;;;;6.60;3.63;;;17.30;89.90;;;;;;5036431;28;20045;-80
2021/09/29 06:40:46;;;;;;;4.25;3.22;;;18.00;82.60;;;;;;5052568;28;20033;-80
2021/09/29 06:43:13;;;;;;;2.58;2.38;;;18.00;81.60;;;;;;5051995;28;20029;-79
2021/09/29 06:45:39;;;;;;;6.82;3.10;;;17.40;82.70;;;;;;5052056;28;20052;-79
2021/09/29 06:48:05;;;;;;;3.05;2.70;;;16.70;82.40;;;;;;5051368;28;20029;-78
2021/09/29 06:50:32;;;;;;;2.95;2.20;;;15.90;86.50;;;;;;5053002;28;20021;-79
2021/09/29 06:52:58;;;;;;;3.55;2.65;;;16.10;89.00;;;;;;5052228;28;20029;-80
2021/09/29 06:55:24;;;;;;;3.20;2.65;;;16.80;84.80;;;;;;5051774;28;20033;-80
2021/09/29 06:57:50;;;;;;;3.00;2.25;;;17.80;79.90;;;;;;5052125;28;20029;-80
2021/09/29 07:00:17;;;;;;;4.75;2.20;;;18.80;76.90;;;;;;5051703;28;20029;-80
2021/09/29 07:02:46;;;;;;;3.47;2.00;;;19.60;73.20;;;;;;5052195;28;20033;-79
2021/09/29 07:05:14;;;;;;;2.60;2.15;;;18.30;74.00;;;;;;5051989;28;20028;-80
2021/09/29 07:07:41;;;;;;;2.40;2.20;;;17.20;77.60;;;;;;5052310;28;20044;-79
2021/09/29 07:10:08;;;;;;;5.05;2.30;;;17.30;79.10;;;;;;5051463;28;20049;-79
2021/09/29 07:12:39;;;;;;;3.50;2.28;;;17.40;78.10;;;;;;5051915;28;20036;-78
2021/09/29 07:15:07;;;;;;;3.30;1.98;;;16.20;80.40;;;;;;5052743;28;20033;-77
2021/09/29 07:17:34;;;;;;;3.75;1.95;;;15.40;84.30;;;;;;5053104;28;20037;-80
2021/09/29 07:20:02;;;;;;;3.53;2.28;;;14.90;87.40;;;;;;5034472;28;20029;-80
2021/09/29 07:22:28;;;;;;;2.88;2.13;;;15.00;88.70;;;;;;5051981;28;20033;-80
2021/09/29 07:24:55;;;;;;;3.92;3.38;;;15.60;87.70;;;;;;5052625;28;20044;-79
2021/09/29 07:27:22;;;;;;;5.38;3.10;;;15.90;84.90;;;;;;5051928;28;20040;-80
2021/09/29 07:29:48;;;;;;;3.65;2.80;;;15.70;85.00;;;;;;5051730;28;20037;-80
2021/09/29 07:32:14;;;;;;;4.00;2.75;;;15.50;86.20;;;;;;5051572;28;20036;-80
2021/09/29 07:34:40;;;;;;;4.72;3.08;;;15.90;85.60;;;;;;5051807;28;20029;-80
2021/09/29 07:37:07;;;;;;;6.10;3.45;;;16.50;82.80;;;;;;5051407;28;20041;-80
2021/09/29 07:39:33;;;;;;;2.85;1.98;;;16.70;82.20;;;;;;5051926;28;20040;-81
2021/09/29 07:41:59;;;;;;;4.68;2.53;;;17.00;80.90;;;;;;5051937;28;20024;-80
2021/09/29 07:44:25;;;;;;;4.28;2.08;;;17.00;80.40;;;;;;5050648;28;20251;-80
2021/09/29 07:46:52;;;;;;;2.60;2.05;;;17.20;79.70;;;;;;5052084;28;20048;-81
2021/09/29 07:49:21;;;;;;;5.10;2.00;;;17.20;79.40;;;;;;5050800;28;20044;-80
2021/09/29 07:51:50;;;;;;;2.45;1.83;;;17.30;78.70;;;;;;5060092;28;20029;-81
2021/09/29 07:54:16;;;;;;;2.72;1.95;;;17.30;79.40;;;;;;5051259;28;20059;-80
2021/09/29 07:56:42;;;;;;;3.13;2.00;;;17.60;78.20;;;;;;5051693;28;20044;-80
2021/09/29 07:59:08;;;;;;;7.80;1.67;;;17.90;76.90;;;;;;5051117;28;20096;-80
2021/09/29 08:01:35;;;;;;;2.92;2.20;;;17.80;76.50;;;;;;5051429;28;20025;-79
2021/09/29 08:04:01;;;;;;;3.08;1.63;;;18.00;76.40;;;;;;5052088;28;20071;-81
2021/09/29 08:06:28;;;;;;;3.10;1.58;;;18.30;74.30;;;;;;5051215;28;20548;-80
2021/09/29 08:08:55;;;;;;;3.30;1.75;;;18.50;74.40;;;;;;5050793;28;20044;-81
2021/09/29 08:11:21;;;;;;;6.35;1.52;;;18.80;73.20;;;;;;5052221;28;20029;-81
2021/09/29 08:13:47;;;;;;;6.55;2.20;;;18.90;72.00;;;;;;5055510;28;20478;-79
2021/09/29 08:16:13;;;;;;;3.80;2.00;;;19.10;71.50;;;;;;5055146;28;20036;-82
2021/09/29 08:18:39;;;;;;;1.90;1.60;;;19.10;70.70;;;;;;5037147;28;20033;-81
2021/09/29 08:21:09;;;;;;;1.50;1.30;;;18.40;72.90;;;;;;5055485;28;20062;-81
2021/09/29 08:23:39;;;;;;;2.63;1.60;;;18.20;74.20;;;;;;5055556;28;20037;-80
2021/09/29 08:38:41;;;;;;;2.88;2.22;;;16.30;80.50;;;;;;5071114;28;20033;-81
2021/09/29 08:41:48;;;;;;;6.53;1.90;;;16.20;81.00;;;;;;5073036;28;20063;-78
2021/09/29 08:44:23;;;;;;;3.85;1.90;;;16.10;81.30;;;;;;5069952;28;20047;-79
2021/09/29 08:47:07;;;;;;;4.53;1.80;;;16.00;80.60;;;;;;5036913;28;20052;-81
2021/09/29 09:16:31;;;;;;;2.55;1.23;;;16.60;79.10;;;;;;5054018;28;20047;-80
2021/09/29 09:19:03;;;;;;;3.28;1.30;;;16.60;79.10;;;;;;5054829;28;20040;-79
2021/09/29 09:21:33;;;;;;;4.65;1.60;;;16.70;80.60;;;;;;5054192;28;20356;-80
2021/09/29 09:24:00;;;;;;;3.78;1.65;;;17.10;80.10;;;;;;5053510;28;20029;-80
2021/09/29 09:26:28;;;;;;;3.75;1.95;;;17.30;79.70;;;;;;5043300;28;20497;-80
2021/09/29 09:29:08;;;;;;;2.25;1.13;;;17.60;78.50;;;;;;5055804;28;20497;-79
2021/09/29 09:31:36;;;;;;;3.00;1.42;;;17.50;77.30;;;;;;5055596;28;20048;-80
2021/09/29 09:34:05;;;;;;;2.42;1.50;;;17.40;77.00;;;;;;5037676;28;20033;-80
2021/09/29 09:36:34;;;;;;;3.50;1.67;;;17.30;77.80;;;;;;5054935;28;20048;-80
2021/09/29 09:39:14;;;;;;;4.35;1.92;;;17.30;77.80;;;;;;5036804;28;20037;-80
2021/09/29 09:41:58;;;;;;;2.45;1.27;;;17.40;76.90;;;;;;5037939;28;20044;-81
2021/09/29 09:44:33;;;;;;;3.65;1.40;;;17.40;78.10;;;;;;5053732;28;20052;-80
2021/09/29 09:47:09;;;;;;;2.85;1.50;;;17.40;78.00;;;;;;5053988;28;20037;-81
2021/09/29 09:49:55;;;;;;;3.60;1.70;;;17.30;78.10;;;;;;5054546;28;20038;-80
2021/09/29 09:52:33;;;;;;;2.45;1.58;;;17.20;78.90;;;;;;5053282;28;20049;-81
2021/09/29 09:55:03;;;;;;;1.95;1.33;;;17.30;79.30;;;;;;5036488;28;20086;-80
2021/09/29 09:57:30;;;;;;;4.47;1.77;;;17.20;79.30;;;;;;5054013;28;20040;-79
2021/09/29 09:59:58;;;;;;;2.83;1.50;;;17.20;79.70;;;;;;5072546;28;20044;-79
2021/09/29 10:02:24;;;;;;;5.43;1.63;;;17.30;78.20;;;;;;5051828;28;20045;-79
2021/09/29 10:04:50;;;;;;;4.90;1.83;;;17.30;76.60;;;;;;5052512;28;20052;-80
2021/09/29 10:07:17;;;;;;;5.00;1.67;;;17.10;76.30;;;;;;5053331;28;20386;-81
2021/09/29 10:09:54;;;;;;;7.80;1.33;;;17.10;77.10;;;;;;5054000;28;20355;-79
2021/09/29 10:15:21;;;;;;;2.13;1.23;;;17.40;76.40;;;;;;5056196;28;20415;-81
2021/09/29 10:28:42;;;;;;;3.13;1.30;;;18.40;72.60;;;;;;5054752;28;20435;-79
2021/09/29 10:31:28;;;;;;;3.15;1.55;;;18.50;73.50;;;;;;5052947;28;20045;-77
2021/09/29 10:34:05;;;;;;;3.25;1.33;;;18.40;73.00;;;;;;5036979;28;20037;-80
2021/09/29 10:42:02;;;;;;;1.98;1.15;;;18.10;74.00;;;;;;5054596;28;20032;-80
2021/09/29 11:03:07;;;;;;;1.75;1.02;;;18.00;72.50;;;;;;5053838;28;20033;-82
2021/09/29 11:09:41;;;;;;;4.07;1.58;;;17.80;72.70;;;;;;5019408;28;20435;-82
2021/09/29 11:31:25;;;;;;;3.40;1.00;;;17.60;80.30;;;;;;5053278;28;20029;-79
2021/09/29 11:34:06;;;;;;;4.90;1.58;;;17.10;84.90;;;;;;5052187;28;20040;-78
2021/09/29 12:09:54;;;;;;;0.65;0.45;;;13.70;99.90;;;;;;5065580;28;20037;-80
2021/09/29 12:14:54;;;;;;;0.90;0.45;;;12.80;99.90;;;;;;5064958;28;20037;-80
2021/09/29 12:17:25;;;;;;;2.28;0.80;;;13.10;99.90;;;;;;5054839;28;20394;-79
2021/09/29 12:19:57;;;;;;;7.05;1.92;;;13.50;99.90;;;;;;5055079;28;20048;-79
2021/09/29 12:22:25;;;;;;;3.58;1.60;;;14.10;99.90;;;;;;5054763;28;20025;-79
2021/09/29 12:25:06;;;;;;;5.28;2.70;;;14.50;99.90;;;;;;5053893;28;20052;-78
2021/09/29 12:27:38;;;;;;;5.63;2.58;;;15.00;99.90;;;;;;5054055;28;20036;-81
2021/09/29 12:30:15;;;;;;;5.93;2.58;;;15.10;99.90;;;;;;5055648;28;20359;-80
2021/09/29 12:32:59;;;;;;;8.93;2.05;;;14.70;99.90;;;;;;5055443;28;20359;-80
2021/09/29 12:35:44;;;;;;;5.72;2.00;;;14.70;99.90;;;;;;5036650;28;20041;-80
2021/09/29 12:38:12;;;;;;;3.10;1.80;;;14.40;99.90;;;;;;5055342;28;20048;-80
2021/09/29 12:40:42;;;;;;;1.75;0.98;;;14.30;99.90;;;;;;5054000;28;20087;-79
2021/09/29 12:43:11;;;;;;;8.15;1.00;;;14.20;99.90;;;;;;5054745;28;20043;-77
2021/09/29 12:45:46;;;;;;;1.33;0.55;;;14.00;99.90;;;;;;5054578;28;20052;-81
2021/09/29 12:48:13;;;;;;;2.38;0.77;;;13.90;99.90;;;;;;5054585;28;20493;-82
2021/09/29 12:50:58;;;;;;;1.35;0.80;;;13.60;99.90;;;;;;5054591;28;20036;-80
2021/09/29 12:53:31;;;;;;;1.55;0.70;;;13.60;99.90;;;;;;5054397;28;20029;-80
2021/09/29 12:56:02;;;;;;;2.53;0.93;;;13.40;99.90;;;;;;5054754;28;20033;-81
2021/09/29 12:58:28;;;;;;;0.82;0.52;;;13.50;99.90;;;;;;5052699;28;20037;-79
2021/09/29 13:00:56;;;;;;;0.63;0.32;;;13.50;99.90;;;;;;5055037;28;20051;-81
2021/09/29 13:03:22;;;;;;;2.80;0.60;;;13.40;99.90;;;;;;5056266;28;20045;-80
2021/09/29 13:05:48;;;;;;;4.47;0.50;;;13.30;99.90;;;;;;5054338;28;20063;-80
2021/09/29 13:08:16;;;;;;;1.02;0.50;;;13.40;99.90;;;;;;5054058;28;20474;-80
2021/09/29 13:10:43;;;;;;;1.08;0.50;;;13.30;99.90;;;;;;5053974;28;20478;-80
2021/09/29 13:13:10;;;;;;;2.83;0.60;;;13.20;99.90;;;;;;5054390;28;20033;-79
2021/09/29 13:15:41;;;;;;;1.00;0.73;;;13.30;99.90;;;;;;5073175;28;20051;-79
2021/09/29 13:18:09;;;;;;;;;;;13.50;99.90;;;;;;5057459;28;20087;-79
2021/09/29 13:20:36;;;;;;;1.25;0.63;;;13.60;99.90;;;;;;5053582;28;20258;-79
2021/09/29 13:23:13;;;;;;;1.35;0.75;;;13.50;99.90;;;;;;5054456;28;20040;-79
2021/09/29 13:36:36;;;;;;;1.90;1.30;;;13.90;99.90;;;;;;5064254;28;20381;-79
2021/09/29 13:39:14;;;;;;;1.15;0.70;;;13.90;99.90;;;;;;5066330;28;20441;-79
2021/09/29 13:41:41;;;;;;;2.85;1.45;;;13.90;99.90;;;;;;5064248;28;20033;-79
2021/09/29 13:44:09;;;;;;;2.28;1.08;;;13.90;99.90;;;;;;5060182;28;20040;-78
2021/09/29 13:46:35;;;;;;;2.00;0.50;;;13.70;99.90;;;;;;5053197;28;20049;-77
2021/09/29 13:49:05;;;;;;;0.95;0.60;;;13.90;99.90;;;;;;5035895;28;20037;-77
2021/09/29 13:51:39;;;;;;;1.10;0.45;;;13.80;99.90;;;;;;5052401;28;20025;-77
2021/09/29 13:54:18;;;;;;;1.10;0.52;;;13.80;99.90;;;;;;5035017;28;20052;-78
2021/09/29 14:02:27;;;;;;;0.70;0.40;;;14.10;99.90;;;;;;5052891;28;20478;-76
2021/09/29 14:29:45;;;;;;;8.80;5.95;;;13.90;99.90;;;;;;5052928;28;20037;-75
2021/09/29 14:32:26;;;;;;;5.10;3.75;;;13.80;99.90;;;;;;5058712;28;20390;-76
2021/09/29 14:34:53;;;;;;;1.13;0.73;;;13.90;99.90;;;;;;5052649;28;20052;-75
2021/09/29 14:37:19;;;;;;;0.80;0.50;;;14.00;99.90;;;;;;5051380;28;20497;-75
2021/09/29 14:39:46;;;;;;;0.22;0.22;;;14.20;99.90;;;;;;5063366;28;20036;-77
2021/09/29 14:42:13;;;;;;;0.50;0.30;;;14.20;99.90;;;;;;5052418;28;20044;-75
2021/09/29 14:44:39;;;;;;;0.45;0.22;;;14.30;99.90;;;;;;5050969;28;20052;-76
2021/09/29 14:47:12;;;;;;;0.40;0.20;;;14.30;99.90;;;;;;5033238;28;20053;-76
2021/09/29 14:49:43;;;;;;;0.35;0.22;;;14.30;99.90;;;;;;5051763;28;20761;-76
2021/09/29 14:52:11;;;;;;;0.80;0.30;;;14.30;99.90;;;;;;5033336;28;20052;-75
2021/09/29 14:54:38;;;;;;;1.48;0.50;;;14.40;99.90;;;;;;5050674;28;20043;-76
2021/09/29 14:57:10;;;;;;;0.77;0.30;;;14.40;99.90;;;;;;5051780;28;20040;-76
2021/09/29 14:59:45;;;;;;;0.40;0.30;;;14.30;99.90;;;;;;5051528;28;20033;-75
2021/09/29 15:02:14;;;;;;;9.35;0.70;;;14.30;99.90;;;;;;5052173;28;20462;-76
2021/09/29 15:04:40;;;;;;;12.30;6.18;;;14.30;99.90;;;;;;5051885;28;20378;-77
2021/09/29 15:07:07;;;;;;;9.02;6.90;;;14.10;99.90;;;;;;5051798;28;20048;-77
2021/09/29 15:09:34;;;;;;;7.90;4.47;;;14.10;99.90;;;;;;5048628;28;20040;-76
2021/09/29 15:12:00;;;;;;;6.28;1.58;;;14.10;99.90;;;;;;5052157;28;20036;-76
2021/09/29 15:14:45;;;;;;;2.45;1.10;;;14.10;99.90;;;;;;5051597;28;20041;-76
2021/09/29 15:17:35;;;;;;;3.13;2.28;;;14.10;99.90;;;;;;5051875;28;20037;-77
2021/09/29 15:28:11;;;;;;;1.27;0.40;;;14.10;99.90;;;;;;5054565;28;20049;-75
2021/09/29 15:52:05;;;;;;;3.03;2.53;;;14.40;99.90;;;;;;5055158;28;20045;-76
2021/09/29 15:57:19;;;;;;;6.85;4.18;;;14.20;98.10;;;;;;5055976;28;20037;-80
2021/09/29 16:00:08;;;;;;;10.23;7.28;;;14.20;96.00;;;;;;5055875;28;20029;-79
2021/09/29 16:02:46;;;;;;;7.57;5.13;;;14.20;98.60;;;;;;5069696;28;20040;-79
2021/09/29 16:31:04;;;;;;;3.45;2.15;;;14.00;90.20;;;;;;5035068;28;20040;-76
2021/09/29 16:36:17;;;;;;;9.98;4.28;;;13.90;92.00;;;;;;5054512;28;20051;-74
2021/09/29 16:38:44;;;;;;;3.30;1.20;;;13.70;90.30;;;;;;5054200;28;20025;-74
2021/09/29 16:41:16;;;;;;;8.07;5.13;;;13.70;92.20;;;;;;5054975;28;20496;-76
2021/09/29 16:43:43;;;;;;;7.05;3.78;;;13.70;91.00;;;;;;5036315;28;20478;-75
2021/09/29 16:46:12;;;;;;;5.30;2.88;;;13.70;91.60;;;;;;5054426;28;20053;-75
2021/09/29 16:48:38;;;;;;;2.53;1.58;;;13.80;93.30;;;;;;5054315;28;20245;-75
2021/09/29 16:51:18;;;;;;;2.67;0.55;;;13.80;94.50;;;;;;5054836;28;20063;-75
2021/09/29 16:53:49;;;;;;;2.90;0.73;;;13.80;95.20;;;;;;5054470;28;20033;-76
2021/09/29 16:56:16;;;;;;;1.80;0.85;;;13.70;94.20;;;;;;5054531;28;20344;-75